createdAt,value
2022-11-28T00:02:07.660Z,10.95
2022-11-28T00:04:35.351Z,10.30
2022-11-28T00:07:03.058Z,10.13
2022-11-28T00:09:30.789Z,10.13
2022-11-28T00:11:58.310Z,11.05
2022-11-28T00:14:25.882Z,10.77
2022-11-28T00:16:53.407Z,10.98
2022-11-28T00:19:20.974Z,12.23
2022-11-28T00:21:48.609Z,10.80
2022-11-28T00:24:16.207Z,10.20
2022-11-28T00:26:43.870Z,10.98
2022-11-28T00:29:11.658Z,10.77
2022-11-28T00:31:44.915Z,9.75
2022-11-28T00:34:13.464Z,9.95
2022-11-28T00:36:41.156Z,9.95
2022-11-28T00:39:08.768Z,11.00
2022-11-28T00:41:36.608Z,10.73
2022-11-28T00:44:04.376Z,11.07
2022-11-28T00:46:32.069Z,10.45
2022-11-28T00:49:00.099Z,10.80
2022-11-28T00:51:28.744Z,10.77
2022-11-28T00:53:57.546Z,11.20
2022-11-28T00:56:26.547Z,10.40
2022-11-28T00:58:54.443Z,10.73
2022-11-28T01:01:26.613Z,10.43
2022-11-28T01:03:55.591Z,12.32
2022-11-28T01:06:34.725Z,10.73
2022-11-28T01:09:03.689Z,10.23
2022-11-28T01:11:31.154Z,10.98
2022-11-28T01:13:59.619Z,10.02
2022-11-28T01:16:27.304Z,9.43
2022-11-28T01:18:55.129Z,10.68
2022-11-28T01:21:22.772Z,10.45
2022-11-28T01:23:50.573Z,10.13
2022-11-28T01:26:19.855Z,10.48
2022-11-28T01:28:48.028Z,9.70
2022-11-28T01:31:16.687Z,9.27
2022-11-28T01:33:44.628Z,10.07
2022-11-28T01:36:12.829Z,9.70
2022-11-28T01:38:40.775Z,9.77
2022-11-28T01:41:08.380Z,9.50
2022-11-28T01:43:36.592Z,10.73
2022-11-28T01:46:05.185Z,10.93
2022-11-28T01:48:35.068Z,9.10
2022-11-28T01:51:06.484Z,10.15
2022-11-28T01:53:35.566Z,10.70
2022-11-28T01:56:06.620Z,10.55
2022-11-28T02:01:01.965Z,10.63
2022-11-28T02:03:35.564Z,9.48
2022-11-28T02:06:03.470Z,10.18
2022-11-28T02:08:33.940Z,10.73
2022-11-28T02:11:04.578Z,10.52
2022-11-28T02:13:51.029Z,11.68
2022-11-28T02:16:21.670Z,9.90
2022-11-28T02:18:50.760Z,11.70
2022-11-28T02:21:23.907Z,9.90
2022-11-28T02:24:16.133Z,10.32
2022-11-28T02:27:06.962Z,9.55
2022-11-28T02:29:53.514Z,11.40
2022-11-28T02:32:21.065Z,9.38
2022-11-28T02:35:02.380Z,10.27
2022-11-28T02:37:36.995Z,11.90
2022-11-28T02:40:22.856Z,10.00
2022-11-28T02:43:02.605Z,10.98
2022-11-28T02:45:30.241Z,9.60
2022-11-28T02:48:05.515Z,11.27
2022-11-28T02:50:36.457Z,12.15
2022-11-28T02:53:09.269Z,12.43
2022-11-28T02:55:41.221Z,12.50
2022-11-28T02:58:09.979Z,13.23
2022-11-28T03:00:38.807Z,12.65
2022-11-28T03:03:06.312Z,12.00
2022-11-28T03:05:46.741Z,12.75
2022-11-28T03:08:22.566Z,12.67
2022-11-28T03:11:13.665Z,12.98
2022-11-28T03:13:48.574Z,13.30
2022-11-28T03:16:28.476Z,12.45
2022-11-28T03:19:00.259Z,12.55
2022-11-28T03:22:00.452Z,12.32
2022-11-28T03:24:30.811Z,13.20
2022-11-28T03:27:03.679Z,13.03
2022-11-28T03:29:42.903Z,11.63
2022-11-28T03:32:21.885Z,11.25
2022-11-28T03:34:51.451Z,12.63
2022-11-28T03:37:22.245Z,12.32
2022-11-28T03:39:52.912Z,12.52
2022-11-28T03:42:22.707Z,11.13
2022-11-28T03:45:02.209Z,12.65
2022-11-28T03:47:32.115Z,12.85
2022-11-28T03:50:01.821Z,12.48
2022-11-28T03:52:30.920Z,13.90
2022-11-28T03:55:03.910Z,13.43
2022-11-28T03:57:35.743Z,15.05
2022-11-28T04:00:07.496Z,14.27
2022-11-28T04:02:50.212Z,14.55
2022-11-28T04:05:38.068Z,14.90
2022-11-28T04:08:13.093Z,12.85
2022-11-28T04:10:45.303Z,14.73
2022-11-28T04:13:19.364Z,13.48
2022-11-28T04:15:53.021Z,13.55
2022-11-28T04:18:24.603Z,14.07
2022-11-28T04:20:59.085Z,13.95
2022-11-28T04:23:27.840Z,14.38
2022-11-28T04:26:01.782Z,14.95
2022-11-28T04:28:30.976Z,14.18
2022-11-28T04:30:59.483Z,14.88
2022-11-28T04:33:29.157Z,14.95
2022-11-28T04:35:57.409Z,14.32
2022-11-28T04:38:26.562Z,16.35
2022-11-28T04:41:09.353Z,15.90
2022-11-28T04:43:40.681Z,14.93
2022-11-28T04:46:11.905Z,16.23
2022-11-28T04:48:39.563Z,15.90
2022-11-28T04:51:15.742Z,14.52
2022-11-28T04:54:02.085Z,16.15
2022-11-28T04:56:32.179Z,15.05
2022-11-28T04:59:00.242Z,14.63
2022-11-28T05:01:29.704Z,14.77
2022-11-28T05:03:57.392Z,15.07
2022-11-28T05:06:28.468Z,13.80
2022-11-28T05:11:23.537Z,13.45
2022-11-28T05:13:51.124Z,16.05
2022-11-28T05:16:19.340Z,13.50
2022-11-28T05:18:46.947Z,14.70
2022-11-28T05:21:14.744Z,14.30
2022-11-28T05:23:43.531Z,13.43
2022-11-28T05:26:12.558Z,14.27
2022-11-28T05:28:40.255Z,13.95
2022-11-28T05:31:07.930Z,13.95
2022-11-28T05:33:35.556Z,14.98
2022-11-28T05:36:12.382Z,14.18
2022-11-28T05:38:41.258Z,14.77
2022-11-28T05:41:09.302Z,15.68
2022-11-28T05:43:37.007Z,14.35
2022-11-28T05:46:07.723Z,14.55
2022-11-28T05:48:35.979Z,14.93
2022-11-28T05:51:06.991Z,14.05
2022-11-28T05:53:34.609Z,14.80
2022-11-28T05:56:07.415Z,13.15
2022-11-28T05:58:35.107Z,14.80
2022-11-28T06:01:19.527Z,12.85
2022-11-28T06:03:47.580Z,13.50
2022-11-28T06:06:16.064Z,13.40
2022-11-28T06:08:44.146Z,12.52
2022-11-28T06:11:12.120Z,13.13
2022-11-28T06:13:39.695Z,13.38
2022-11-28T06:16:16.911Z,13.65
2022-11-28T06:18:44.710Z,13.90
2022-11-28T06:21:13.203Z,11.40
2022-11-28T06:23:41.605Z,13.93
2022-11-28T06:26:10.637Z,13.00
2022-11-28T06:28:38.502Z,14.32
2022-11-28T06:31:10.264Z,12.73
2022-11-28T06:33:37.814Z,12.25
2022-11-28T06:36:06.242Z,13.00
2022-11-28T06:38:33.808Z,13.32
2022-11-28T06:41:03.100Z,13.63
2022-11-28T06:43:30.680Z,12.38
2022-11-28T06:45:58.510Z,13.13
2022-11-28T06:48:26.534Z,8.60
2022-11-28T06:50:54.654Z,13.90
2022-11-28T06:53:24.206Z,12.73
2022-11-28T06:55:53.687Z,13.68
2022-11-28T06:58:21.377Z,14.07
2022-11-28T07:00:48.989Z,14.27
2022-11-28T07:03:16.662Z,13.32
2022-11-28T07:05:44.284Z,13.75
2022-11-28T07:08:11.879Z,13.73
2022-11-28T07:10:39.446Z,13.88
2022-11-28T07:13:07.620Z,14.70
2022-11-28T07:15:35.273Z,13.63
2022-11-28T07:18:02.896Z,13.85
2022-11-28T07:20:30.445Z,14.90
2022-11-28T07:22:57.966Z,12.75
2022-11-28T07:25:25.461Z,13.55
2022-11-28T07:27:53.013Z,14.30
2022-11-28T07:30:20.693Z,14.45
2022-11-28T07:32:48.291Z,13.25
2022-11-28T07:35:15.895Z,14.40
2022-11-28T07:37:43.476Z,12.98
2022-11-28T07:40:13.404Z,13.63
2022-11-28T07:42:40.984Z,13.18
2022-11-28T07:45:10.008Z,14.57
2022-11-28T07:47:37.780Z,12.05
2022-11-28T07:50:05.843Z,14.52
2022-11-28T07:52:33.451Z,14.13
2022-11-28T07:55:01.108Z,13.07
2022-11-28T07:57:30.503Z,14.13
2022-11-28T08:00:00.683Z,12.95
2022-11-28T08:02:32.338Z,13.68
2022-11-28T08:05:00.179Z,13.10
2022-11-28T08:07:27.829Z,14.23
2022-11-28T08:09:55.471Z,12.43
2022-11-28T08:12:23.065Z,14.05
2022-11-28T08:14:50.710Z,13.57
2022-11-28T08:17:18.266Z,13.82
2022-11-28T08:19:45.914Z,13.38
2022-11-28T08:22:13.482Z,13.15
2022-11-28T08:24:41.150Z,14.20
2022-11-28T08:27:08.897Z,13.35
2022-11-28T08:29:36.407Z,13.57
2022-11-28T08:32:03.955Z,14.68
2022-11-28T08:34:31.461Z,12.45
2022-11-28T08:36:58.997Z,13.55
2022-11-28T08:39:26.634Z,15.50
2022-11-28T08:41:57.025Z,14.80
2022-11-28T08:44:24.705Z,12.75
2022-11-28T08:46:52.432Z,14.07
2022-11-28T08:49:20.023Z,14.32
2022-11-28T08:51:47.491Z,14.10
2022-11-28T08:54:15.722Z,14.07
2022-11-28T08:56:45.172Z,15.32
2022-11-28T08:59:12.843Z,14.93
2022-11-28T09:01:40.586Z,15.07
2022-11-28T09:04:08.224Z,14.77
2022-11-28T09:06:36.788Z,14.93
2022-11-28T09:09:04.348Z,14.73
2022-11-28T09:11:32.053Z,15.48
2022-11-28T09:14:00.507Z,15.15
2022-11-28T09:16:28.161Z,15.82
2022-11-28T09:18:58.945Z,14.10
2022-11-28T09:21:27.016Z,14.77
2022-11-28T09:23:55.691Z,15.63
2022-11-28T09:26:24.672Z,13.85
2022-11-28T09:28:52.545Z,16.52
2022-11-28T09:31:20.254Z,14.82
2022-11-28T09:33:49.329Z,15.70
2022-11-28T09:36:18.781Z,15.90
2022-11-28T09:38:46.996Z,14.85
2022-11-28T09:41:27.165Z,14.30
2022-11-28T09:43:56.563Z,12.98
2022-11-28T09:46:28.652Z,13.77
2022-11-28T09:48:58.830Z,14.60
2022-11-28T09:53:58.048Z,14.50
2022-11-28T09:56:27.871Z,14.23
2022-11-28T09:58:57.829Z,13.70
2022-11-28T10:01:25.396Z,14.00
2022-11-28T10:04:11.653Z,13.23
2022-11-28T10:06:53.326Z,15.10
2022-11-28T10:09:33.277Z,14.38
2022-11-28T10:12:13.029Z,13.27
2022-11-28T10:14:50.319Z,14.18
2022-11-28T10:17:20.990Z,14.63
2022-11-28T10:19:54.702Z,13.40
2022-11-28T10:22:55.066Z,13.43
2022-11-28T10:25:29.439Z,14.23
2022-11-28T10:27:57.416Z,12.63
2022-11-28T10:30:26.492Z,14.70
2022-11-28T10:33:13.219Z,12.90
2022-11-28T10:36:13.283Z,12.80
2022-11-28T10:38:40.933Z,13.48
2022-11-28T10:41:13.197Z,12.55
2022-11-28T10:43:56.167Z,13.95
2022-11-28T10:46:39.062Z,12.90
2022-11-28T10:49:22.040Z,12.50
2022-11-28T10:51:52.378Z,12.68
2022-11-28T10:54:20.399Z,12.27
2022-11-28T10:56:50.928Z,12.70
2022-11-28T10:59:34.334Z,11.68
2022-11-28T11:02:04.638Z,13.02
2022-11-28T11:04:34.414Z,12.35
2022-11-28T11:07:14.808Z,13.63
2022-11-28T11:09:46.014Z,12.77
2022-11-28T11:12:20.323Z,12.52
2022-11-28T11:14:48.175Z,12.82
2022-11-28T11:17:45.266Z,12.82
2022-11-28T11:20:27.226Z,11.52
2022-11-28T11:22:56.444Z,14.02
2022-11-28T11:25:25.349Z,11.50
2022-11-28T11:27:57.518Z,13.25
2022-11-28T11:30:26.063Z,12.70
2022-11-28T11:32:55.784Z,13.18
2022-11-28T11:35:25.395Z,12.30
2022-11-28T11:37:53.276Z,12.57
2022-11-28T11:40:20.763Z,12.32
2022-11-28T11:42:56.671Z,12.50
2022-11-28T11:45:28.458Z,12.60
2022-11-28T11:47:56.867Z,12.57
2022-11-28T11:50:25.709Z,12.45
2022-11-28T11:53:11.591Z,13.30
2022-11-28T11:55:44.120Z,11.40
2022-11-28T11:58:15.179Z,12.25
2022-11-28T12:03:23.929Z,12.48
2022-11-28T12:06:13.657Z,10.77
2022-11-28T12:08:52.896Z,11.37
2022-11-28T12:11:28.848Z,11.02
2022-11-28T12:13:58.175Z,11.25
2022-11-28T12:16:28.824Z,10.88
2022-11-28T12:19:15.249Z,10.82
2022-11-28T12:21:51.848Z,11.65
2022-11-28T12:24:24.453Z,10.45
2022-11-28T12:27:12.329Z,10.10
2022-11-28T12:30:01.390Z,10.25
2022-11-28T12:32:47.714Z,9.98
2022-11-28T12:35:37.349Z,9.23
2022-11-28T12:38:12.060Z,10.07
2022-11-28T12:40:42.915Z,10.27
2022-11-28T12:43:17.289Z,11.13
2022-11-28T12:45:52.343Z,9.50
2022-11-28T12:48:38.365Z,9.88
2022-11-28T12:51:06.062Z,10.60
2022-11-28T12:53:36.653Z,10.93
2022-11-28T12:56:04.257Z,8.85
2022-11-28T12:58:37.751Z,10.40
2022-11-28T13:01:24.248Z,9.75
2022-11-28T13:04:01.089Z,10.30
2022-11-28T13:06:47.610Z,10.93
2022-11-28T13:09:18.518Z,10.95
2022-11-28T13:11:52.993Z,9.40
2022-11-28T13:14:20.507Z,10.20
2022-11-28T13:16:52.318Z,10.55
2022-11-28T13:19:32.196Z,9.68
2022-11-28T13:22:05.717Z,8.80
2022-11-28T13:24:50.382Z,10.20
2022-11-28T13:27:21.915Z,10.13
2022-11-28T13:30:03.770Z,10.93
2022-11-28T13:32:40.481Z,10.60
2022-11-28T13:35:12.011Z,10.00
2022-11-28T13:40:48.693Z,10.77
2022-11-28T13:43:36.987Z,9.32
2022-11-28T13:46:05.140Z,10.18
2022-11-28T13:51:32.031Z,9.25
2022-11-28T13:54:21.488Z,10.93
2022-11-28T13:57:04.666Z,24.20
2022-11-28T13:59:32.917Z,12.95
2022-11-28T14:02:01.755Z,12.05
2022-11-28T14:04:30.616Z,14.57
2022-11-28T14:07:08.404Z,12.30
2022-11-28T14:09:47.624Z,12.23
2022-11-28T14:12:41.430Z,11.55
2022-11-28T14:15:27.807Z,9.70
2022-11-28T14:18:14.251Z,10.82
2022-11-28T14:20:58.787Z,12.15
2022-11-28T14:23:29.776Z,11.63
2022-11-28T14:25:57.755Z,11.30
2022-11-28T14:28:36.774Z,12.73
2022-11-28T14:31:04.421Z,12.68
2022-11-28T14:33:37.940Z,11.88
2022-11-28T14:36:26.024Z,12.93
2022-11-28T14:39:06.024Z,13.45
2022-11-28T14:41:54.514Z,9.75
2022-11-28T14:44:44.035Z,11.32
2022-11-28T14:47:27.580Z,8.25
2022-11-28T14:50:17.652Z,10.38
2022-11-28T14:52:50.942Z,10.70
2022-11-28T14:55:21.288Z,9.85
2022-11-28T14:58:02.533Z,10.67
2022-11-28T15:00:38.783Z,11.35
2022-11-28T15:03:22.824Z,11.82
2022-11-28T15:05:50.593Z,12.57
2022-11-28T15:08:38.127Z,11.48
2022-11-28T15:11:26.173Z,12.70
2022-11-28T15:14:05.284Z,11.88
2022-11-28T15:16:35.193Z,13.15
2022-11-28T15:19:08.939Z,13.02
2022-11-28T15:21:43.719Z,13.55
2022-11-28T15:24:31.198Z,12.77
2022-11-28T15:26:59.863Z,13.95
2022-11-28T15:29:28.750Z,13.18
2022-11-28T15:31:57.143Z,14.68
2022-11-28T15:34:35.370Z,13.80
2022-11-28T15:37:08.059Z,13.35
2022-11-28T15:39:41.128Z,13.10
2022-11-28T15:42:35.983Z,13.77
2022-11-28T15:45:03.784Z,14.20
2022-11-28T15:47:31.947Z,13.85
2022-11-28T15:50:11.817Z,14.45
2022-11-28T15:52:39.491Z,13.98
2022-11-28T15:55:17.236Z,13.48
2022-11-28T15:57:44.870Z,12.57
2022-11-28T16:00:16.129Z,13.07
2022-11-28T16:02:44.549Z,14.73
2022-11-28T16:05:22.615Z,14.52
2022-11-28T16:07:51.710Z,15.43
2022-11-28T16:10:37.172Z,13.55
2022-11-28T16:13:13.969Z,14.98
2022-11-28T16:15:49.845Z,14.05
2022-11-28T16:18:20.491Z,14.85
2022-11-28T16:20:48.339Z,14.38
2022-11-28T16:23:19.710Z,14.63
2022-11-28T16:25:58.772Z,14.85
2022-11-28T16:28:37.075Z,14.43
2022-11-28T16:31:14.196Z,14.52
2022-11-28T16:33:45.480Z,15.38
2022-11-28T16:38:41.121Z,15.52
2022-11-28T16:41:15.013Z,13.40
2022-11-28T16:43:42.625Z,15.95
2022-11-28T16:46:19.485Z,15.65
2022-11-28T16:48:57.371Z,13.52
2022-11-28T16:51:29.264Z,12.65
2022-11-28T16:54:00.973Z,8.85
2022-11-28T16:56:31.551Z,7.45
2022-11-28T16:59:08.320Z,4.90
2022-11-28T17:01:36.552Z,2.30
2022-11-28T17:04:04.588Z,1.40
2022-11-28T17:06:42.540Z,0.73
2022-11-28T17:09:12.299Z,1.02
2022-11-28T17:11:55.079Z,1.10
2022-11-28T17:14:22.695Z,0.80
2022-11-28T17:16:50.411Z,0.90
2022-11-28T17:19:18.114Z,0.95
2022-11-28T17:21:47.397Z,0.93
2022-11-28T17:24:19.464Z,1.10
2022-11-28T17:26:47.459Z,0.52
2022-11-28T17:29:15.563Z,0.65
2022-11-28T17:31:43.790Z,0.65
2022-11-28T17:34:16.040Z,0.90
2022-11-28T17:36:43.692Z,0.80
2022-11-28T17:39:11.875Z,0.85
2022-11-28T17:41:39.749Z,0.63
2022-11-28T17:44:07.954Z,0.80
2022-11-28T17:46:35.526Z,0.70
2022-11-28T17:49:03.274Z,0.70
2022-11-28T17:51:31.120Z,1.02
2022-11-28T17:53:59.135Z,0.88
2022-11-28T17:56:27.076Z,0.50
2022-11-28T17:58:55.286Z,0.73
2022-11-28T18:01:25.502Z,0.60
2022-11-28T18:03:58.961Z,0.90
2022-11-28T18:06:29.497Z,0.52
2022-11-28T18:09:00.927Z,0.50
2022-11-28T18:11:29.433Z,0.40
2022-11-28T18:13:58.084Z,0.50
2022-11-28T18:16:26.467Z,0.68
2022-11-28T18:18:54.578Z,1.17
2022-11-28T18:21:23.464Z,1.00
2022-11-28T18:24:00.998Z,0.60
2022-11-28T18:26:30.786Z,0.60
2022-11-28T18:28:59.418Z,0.93
2022-11-28T18:31:29.286Z,0.75
2022-11-28T18:34:02.038Z,0.50
2022-11-28T18:36:33.521Z,1.10
2022-11-28T18:39:03.013Z,0.52
2022-11-28T18:41:31.133Z,0.70
2022-11-28T18:44:00.289Z,1.10
2022-11-28T18:46:29.179Z,0.63
2022-11-28T18:48:57.646Z,0.70
2022-11-28T18:51:29.888Z,0.35
2022-11-28T18:53:58.272Z,1.50
2022-11-28T18:56:30.019Z,0.70
2022-11-28T18:58:58.810Z,0.90
2022-11-28T19:01:46.404Z,0.50
2022-11-28T19:04:15.701Z,0.70
2022-11-28T19:06:48.704Z,0.60
2022-11-28T19:09:17.695Z,0.90
2022-11-28T19:11:46.171Z,0.93
2022-11-28T19:14:18.674Z,0.88
2022-11-28T19:16:48.392Z,0.90
2022-11-28T19:19:18.581Z,0.95
2022-11-28T19:21:56.494Z,0.85
2022-11-28T19:27:14.440Z,0.80
2022-11-28T19:29:47.826Z,0.75
2022-11-28T19:32:18.108Z,1.05
2022-11-28T19:34:53.471Z,0.60
2022-11-28T19:37:21.189Z,0.70
2022-11-28T19:39:49.202Z,0.63
2022-11-28T19:42:26.670Z,0.82
2022-11-28T19:44:54.675Z,0.63
2022-11-28T19:50:14.973Z,0.60
2022-11-28T19:52:43.420Z,1.20
2022-11-28T19:55:13.972Z,0.70
2022-11-28T19:57:44.196Z,0.50
2022-11-28T20:00:15.672Z,0.70
2022-11-28T20:02:48.008Z,0.60
2022-11-28T20:05:27.588Z,0.60
2022-11-28T20:07:58.683Z,0.88
2022-11-28T20:10:33.480Z,0.77
2022-11-28T20:13:01.660Z,0.70
2022-11-28T20:15:31.321Z,1.45
2022-11-28T20:18:02.473Z,1.27
2022-11-28T20:20:33.633Z,1.33
2022-11-28T20:23:01.745Z,2.05
2022-11-28T20:25:29.626Z,0.93
2022-11-28T20:27:57.411Z,0.88
2022-11-28T20:30:25.293Z,1.00
2022-11-28T20:32:54.939Z,1.20
2022-11-28T20:35:25.286Z,2.45
2022-11-28T20:37:54.141Z,1.80
2022-11-28T20:40:21.872Z,2.28
2022-11-28T20:42:49.705Z,2.13
2022-11-28T20:45:17.492Z,1.42
2022-11-28T20:47:49.630Z,1.25
2022-11-28T20:50:17.828Z,0.90
2022-11-28T20:52:47.131Z,1.45
2022-11-28T20:55:14.854Z,1.00
2022-11-28T20:57:42.562Z,0.90
2022-11-28T21:00:10.510Z,0.80
2022-11-28T21:02:38.350Z,1.73
2022-11-28T21:05:09.248Z,0.88
2022-11-28T21:07:39.217Z,1.30
2022-11-28T21:10:12.443Z,1.10
2022-11-28T21:12:40.306Z,1.20
2022-11-28T21:15:09.833Z,1.90
2022-11-28T21:17:37.609Z,1.38
2022-11-28T21:20:05.696Z,1.10
2022-11-28T21:22:33.862Z,1.40
2022-11-28T21:25:01.471Z,1.40
2022-11-28T21:27:29.169Z,2.13
2022-11-28T21:29:56.787Z,1.73
2022-11-28T21:32:24.519Z,1.63
2022-11-28T21:34:53.516Z,1.25
2022-11-28T21:37:21.214Z,2.17
2022-11-28T21:39:48.858Z,1.52
2022-11-28T21:42:20.484Z,1.08
2022-11-28T21:44:48.821Z,1.42
2022-11-28T21:47:19.491Z,1.80
2022-11-28T21:49:47.428Z,1.77
2022-11-28T21:52:16.641Z,1.42
2022-11-28T21:54:45.147Z,1.90
2022-11-28T21:57:12.980Z,1.75
2022-11-28T21:59:40.484Z,1.65
2022-11-28T22:02:11.829Z,2.65
2022-11-28T22:04:39.831Z,1.88
2022-11-28T22:07:07.608Z,1.67
2022-11-28T22:09:35.212Z,2.38
2022-11-28T22:12:02.917Z,2.38
2022-11-28T22:14:36.365Z,2.08
2022-11-28T22:17:04.378Z,1.77
2022-11-28T22:19:31.952Z,1.75
2022-11-28T22:21:59.573Z,1.73
2022-11-28T22:24:27.208Z,1.92
2022-11-28T22:26:55.869Z,1.60
2022-11-28T22:29:24.456Z,2.03
2022-11-28T22:31:52.962Z,1.65
2022-11-28T22:34:20.594Z,1.55
2022-11-28T22:36:48.598Z,2.55
2022-11-28T22:39:16.418Z,1.88
2022-11-28T22:41:44.328Z,1.85
2022-11-28T22:44:12.093Z,1.70
2022-11-28T22:46:47.367Z,2.53
2022-11-28T22:49:15.131Z,1.90
2022-11-28T22:51:42.801Z,2.50
2022-11-28T22:54:12.979Z,2.08
2022-11-28T22:56:40.936Z,2.15
2022-11-28T22:59:15.590Z,2.03
2022-11-28T23:01:43.692Z,1.80
2022-11-28T23:04:12.074Z,1.85
2022-11-28T23:06:40.445Z,1.75
2022-11-28T23:09:08.725Z,2.67
2022-11-28T23:11:37.230Z,2.03
2022-11-28T23:14:06.254Z,2.40
2022-11-28T23:16:37.893Z,1.42
2022-11-28T23:19:08.794Z,1.92
2022-11-28T23:21:37.747Z,1.60
2022-11-28T23:24:06.258Z,1.35
2022-11-28T23:26:34.524Z,3.05
2022-11-28T23:29:05.155Z,1.88
2022-11-28T23:31:35.525Z,1.88
2022-11-28T23:34:03.844Z,1.88
2022-11-28T23:36:37.010Z,3.55
2022-11-28T23:39:11.472Z,1.90
2022-11-28T23:41:39.059Z,2.20
2022-11-28T23:44:06.759Z,1.95
2022-11-28T23:46:34.551Z,2.38
2022-11-28T23:49:03.017Z,2.25
2022-11-28T23:51:33.214Z,2.38
2022-11-28T23:54:01.316Z,2.25
2022-11-28T23:56:31.100Z,1.40
2022-11-28T23:59:01.186Z,2.00
